sensor_id;sensor_type;location;lat;lon;timestamp;temperature;humidity
79439;DHT22;68889;48.232;10.110;2024-01-10T00:00:20;-7.20;96.10
79439;DHT22;68889;48.232;10.110;2024-01-10T00:02:47;-7.10;96.00
79439;DHT22;68889;48.232;10.110;2024-01-10T00:05:13;-7.10;95.90
79439;DHT22;68889;48.232;10.110;2024-01-10T00:07:39;-7.10;95.80
79439;DHT22;68889;48.232;10.110;2024-01-10T00:10:05;-7.10;96.00
79439;DHT22;68889;48.232;10.110;2024-01-10T00:12:30;-7.10;96.00
79439;DHT22;68889;48.232;10.110;2024-01-10T00:15:04;-7.10;95.60
79439;DHT22;68889;48.232;10.110;2024-01-10T00:17:30;-7.00;95.40
79439;DHT22;68889;48.232;10.110;2024-01-10T00:19:56;-7.10;96.30
79439;DHT22;68889;48.232;10.110;2024-01-10T00:22:23;-7.10;96.60
79439;DHT22;68889;48.232;10.110;2024-01-10T00:24:49;-7.00;96.60
79439;DHT22;68889;48.232;10.110;2024-01-10T00:27:15;-7.00;96.60
79439;DHT22;68889;48.232;10.110;2024-01-10T00:29:41;-6.90;96.30
79439;DHT22;68889;48.232;10.110;2024-01-10T00:32:08;-6.90;96.30
79439;DHT22;68889;48.232;10.110;2024-01-10T00:34:34;-6.80;96.30
79439;DHT22;68889;48.232;10.110;2024-01-10T00:36:59;-6.80;96.50
79439;DHT22;68889;48.232;10.110;2024-01-10T00:39:25;-6.70;96.50
79439;DHT22;68889;48.232;10.110;2024-01-10T00:41:50;-6.60;96.20
79439;DHT22;68889;48.232;10.110;2024-01-10T00:44:16;-6.60;95.80
79439;DHT22;68889;48.232;10.110;2024-01-10T00:46:42;-6.50;96.40
79439;DHT22;68889;48.232;10.110;2024-01-10T00:49:07;-6.40;96.10
79439;DHT22;68889;48.232;10.110;2024-01-10T00:51:34;-6.30;95.40
79439;DHT22;68889;48.232;10.110;2024-01-10T00:54:00;-6.20;95.50
79439;DHT22;68889;48.232;10.110;2024-01-10T00:56:25;-6.10;95.60
79439;DHT22;68889;48.232;10.110;2024-01-10T00:58:51;-6.00;95.50
79439;DHT22;68889;48.232;10.110;2024-01-10T01:03:56;-6.00;94.90
79439;DHT22;68889;48.232;10.110;2024-01-10T01:06:22;-5.90;95.20
79439;DHT22;68889;48.232;10.110;2024-01-10T01:08:48;-5.80;94.90
79439;DHT22;68889;48.232;10.110;2024-01-10T01:11:13;-5.80;94.70
79439;DHT22;68889;48.232;10.110;2024-01-10T01:13:40;-5.80;95.20
79439;DHT22;68889;48.232;10.110;2024-01-10T01:16:06;-5.80;94.50
79439;DHT22;68889;48.232;10.110;2024-01-10T01:18:31;-5.80;94.90
79439;DHT22;68889;48.232;10.110;2024-01-10T01:20:58;-5.70;94.10
79439;DHT22;68889;48.232;10.110;2024-01-10T01:23:23;-5.60;93.90
79439;DHT22;68889;48.232;10.110;2024-01-10T01:25:49;-5.60;94.00
79439;DHT22;68889;48.232;10.110;2024-01-10T01:28:16;-5.60;94.00
79439;DHT22;68889;48.232;10.110;2024-01-10T01:30:45;-5.50;94.40
79439;DHT22;68889;48.232;10.110;2024-01-10T01:33:10;-5.50;94.40
79439;DHT22;68889;48.232;10.110;2024-01-10T01:35:36;-5.40;93.60
79439;DHT22;68889;48.232;10.110;2024-01-10T01:38:01;-5.40;93.90
79439;DHT22;68889;48.232;10.110;2024-01-10T01:40:27;-5.30;93.90
79439;DHT22;68889;48.232;10.110;2024-01-10T01:42:53;-5.30;94.10
79439;DHT22;68889;48.232;10.110;2024-01-10T01:45:19;-5.30;93.60
79439;DHT22;68889;48.232;10.110;2024-01-10T01:47:45;-5.20;93.30
79439;DHT22;68889;48.232;10.110;2024-01-10T01:50:11;-5.20;93.90
79439;DHT22;68889;48.232;10.110;2024-01-10T01:52:37;-5.20;93.70
79439;DHT22;68889;48.232;10.110;2024-01-10T01:55:04;-5.20;93.30
79439;DHT22;68889;48.232;10.110;2024-01-10T01:57:31;-5.10;93.40
79439;DHT22;68889;48.232;10.110;2024-01-10T01:59:59;-5.10;93.00
79439;DHT22;68889;48.232;10.110;2024-01-10T02:02:25;-5.10;92.90
79439;DHT22;68889;48.232;10.110;2024-01-10T02:04:51;-5.10;93.00
79439;DHT22;68889;48.232;10.110;2024-01-10T02:07:16;-5.00;93.10
79439;DHT22;68889;48.232;10.110;2024-01-10T02:09:42;-5.00;92.90
79439;DHT22;68889;48.232;10.110;2024-01-10T02:12:08;-5.00;92.60
79439;DHT22;68889;48.232;10.110;2024-01-10T02:14:33;-5.10;92.40
79439;DHT22;68889;48.232;10.110;2024-01-10T02:17:00;-5.00;92.80
79439;DHT22;68889;48.232;10.110;2024-01-10T02:19:25;-5.00;92.80
79439;DHT22;68889;48.232;10.110;2024-01-10T02:21:53;-5.00;92.90
79439;DHT22;68889;48.232;10.110;2024-01-10T02:24:18;-4.90;93.70
79439;DHT22;68889;48.232;10.110;2024-01-10T02:26:44;-4.90;93.00
79439;DHT22;68889;48.232;10.110;2024-01-10T02:29:10;-4.90;93.40
79439;DHT22;68889;48.232;10.110;2024-01-10T02:31:36;-4.90;93.20
79439;DHT22;68889;48.232;10.110;2024-01-10T02:34:01;-4.90;93.70
79439;DHT22;68889;48.232;10.110;2024-01-10T02:36:27;-4.90;93.50
79439;DHT22;68889;48.232;10.110;2024-01-10T02:38:52;-4.90;93.80
79439;DHT22;68889;48.232;10.110;2024-01-10T02:41:19;-4.90;93.60
79439;DHT22;68889;48.232;10.110;2024-01-10T02:43:46;-4.90;93.70
79439;DHT22;68889;48.232;10.110;2024-01-10T02:46:11;-4.90;92.90
79439;DHT22;68889;48.232;10.110;2024-01-10T02:48:37;-4.90;93.10
79439;DHT22;68889;48.232;10.110;2024-01-10T02:51:03;-4.90;92.90
79439;DHT22;68889;48.232;10.110;2024-01-10T02:53:29;-4.90;93.10
79439;DHT22;68889;48.232;10.110;2024-01-10T02:55:56;-4.90;92.90
79439;DHT22;68889;48.232;10.110;2024-01-10T02:58:22;-5.00;94.10
79439;DHT22;68889;48.232;10.110;2024-01-10T03:00:51;-4.90;93.80
79439;DHT22;68889;48.232;10.110;2024-01-10T03:03:17;-4.90;93.80
79439;DHT22;68889;48.232;10.110;2024-01-10T03:05:43;-4.90;93.50
79439;DHT22;68889;48.232;10.110;2024-01-10T03:08:09;-4.80;93.50
79439;DHT22;68889;48.232;10.110;2024-01-10T03:10:35;-4.80;93.80
79439;DHT22;68889;48.232;10.110;2024-01-10T03:13:01;-4.80;93.70
79439;DHT22;68889;48.232;10.110;2024-01-10T03:15:27;-4.70;93.90
79439;DHT22;68889;48.232;10.110;2024-01-10T03:17:52;-4.70;93.60
79439;DHT22;68889;48.232;10.110;2024-01-10T03:20:18;-4.80;93.50
79439;DHT22;68889;48.232;10.110;2024-01-10T03:22:44;-4.80;93.50
79439;DHT22;68889;48.232;10.110;2024-01-10T03:25:09;-4.90;93.40
79439;DHT22;68889;48.232;10.110;2024-01-10T03:27:35;-4.90;93.80
79439;DHT22;68889;48.232;10.110;2024-01-10T03:30:00;-4.90;93.60
79439;DHT22;68889;48.232;10.110;2024-01-10T03:32:26;-4.80;93.90
79439;DHT22;68889;48.232;10.110;2024-01-10T03:34:52;-4.80;93.80
79439;DHT22;68889;48.232;10.110;2024-01-10T03:37:18;-4.80;94.00
79439;DHT22;68889;48.232;10.110;2024-01-10T03:39:44;-4.80;93.80
79439;DHT22;68889;48.232;10.110;2024-01-10T03:42:10;-4.80;93.90
79439;DHT22;68889;48.232;10.110;2024-01-10T03:44:36;-4.80;93.60
79439;DHT22;68889;48.232;10.110;2024-01-10T03:47:02;-4.80;93.60
79439;DHT22;68889;48.232;10.110;2024-01-10T03:49:28;-4.80;94.10
79439;DHT22;68889;48.232;10.110;2024-01-10T03:51:55;-4.70;94.10
79439;DHT22;68889;48.232;10.110;2024-01-10T03:54:20;-4.80;93.90
79439;DHT22;68889;48.232;10.110;2024-01-10T03:56:46;-4.70;93.90
79439;DHT22;68889;48.232;10.110;2024-01-10T03:59:12;-4.70;93.80
79439;DHT22;68889;48.232;10.110;2024-01-10T04:01:38;-4.70;94.00
79439;DHT22;68889;48.232;10.110;2024-01-10T04:04:04;-4.70;94.30
79439;DHT22;68889;48.232;10.110;2024-01-10T04:06:30;-4.60;94.00
79439;DHT22;68889;48.232;10.110;2024-01-10T04:08:56;-4.60;94.40
79439;DHT22;68889;48.232;10.110;2024-01-10T04:11:22;-4.50;94.20
79439;DHT22;68889;48.232;10.110;2024-01-10T04:13:48;-4.50;94.00
79439;DHT22;68889;48.232;10.110;2024-01-10T04:16:14;-4.50;93.60
79439;DHT22;68889;48.232;10.110;2024-01-10T04:18:40;-4.40;93.10
79439;DHT22;68889;48.232;10.110;2024-01-10T04:21:05;-4.40;93.60
79439;DHT22;68889;48.232;10.110;2024-01-10T04:23:32;-4.40;93.80
79439;DHT22;68889;48.232;10.110;2024-01-10T04:26:01;-4.40;93.40
79439;DHT22;68889;48.232;10.110;2024-01-10T04:28:27;-4.40;93.20
79439;DHT22;68889;48.232;10.110;2024-01-10T04:30:54;-4.30;92.80
79439;DHT22;68889;48.232;10.110;2024-01-10T04:33:19;-4.30;92.70
79439;DHT22;68889;48.232;10.110;2024-01-10T04:35:46;-4.30;93.00
79439;DHT22;68889;48.232;10.110;2024-01-10T04:38:13;-4.30;92.70
79439;DHT22;68889;48.232;10.110;2024-01-10T04:40:39;-4.30;92.70
79439;DHT22;68889;48.232;10.110;2024-01-10T04:43:04;-4.30;92.80
79439;DHT22;68889;48.232;10.110;2024-01-10T04:45:30;-4.30;93.30
79439;DHT22;68889;48.232;10.110;2024-01-10T04:47:56;-4.30;93.70
79439;DHT22;68889;48.232;10.110;2024-01-10T04:50:22;-4.20;93.60
79439;DHT22;68889;48.232;10.110;2024-01-10T04:52:48;-4.20;92.80
79439;DHT22;68889;48.232;10.110;2024-01-10T04:55:14;-4.10;93.30
79439;DHT22;68889;48.232;10.110;2024-01-10T04:57:41;-4.10;93.70
79439;DHT22;68889;48.232;10.110;2024-01-10T05:00:08;-4.10;93.30
79439;DHT22;68889;48.232;10.110;2024-01-10T05:02:36;-4.00;93.00
79439;DHT22;68889;48.232;10.110;2024-01-10T05:05:04;-4.00;92.30
79439;DHT22;68889;48.232;10.110;2024-01-10T05:07:32;-4.00;92.20
79439;DHT22;68889;48.232;10.110;2024-01-10T05:09:58;-4.00;92.80
79439;DHT22;68889;48.232;10.110;2024-01-10T05:12:24;-3.90;92.90
79439;DHT22;68889;48.232;10.110;2024-01-10T05:14:49;-3.90;92.80
79439;DHT22;68889;48.232;10.110;2024-01-10T05:17:15;-3.90;91.90
79439;DHT22;68889;48.232;10.110;2024-01-10T05:19:41;-3.90;92.20
79439;DHT22;68889;48.232;10.110;2024-01-10T05:22:06;-3.90;92.90
79439;DHT22;68889;48.232;10.110;2024-01-10T05:24:32;-3.90;92.90
79439;DHT22;68889;48.232;10.110;2024-01-10T05:27:00;-3.90;92.80
79439;DHT22;68889;48.232;10.110;2024-01-10T05:29:25;-3.90;92.90
79439;DHT22;68889;48.232;10.110;2024-01-10T05:31:51;-3.90;92.20
79439;DHT22;68889;48.232;10.110;2024-01-10T05:34:17;-4.00;92.20
79439;DHT22;68889;48.232;10.110;2024-01-10T05:36:43;-4.00;92.70
79439;DHT22;68889;48.232;10.110;2024-01-10T05:39:08;-4.00;92.80
79439;DHT22;68889;48.232;10.110;2024-01-10T05:41:34;-4.00;93.10
79439;DHT22;68889;48.232;10.110;2024-01-10T05:44:00;-4.00;92.70
79439;DHT22;68889;48.232;10.110;2024-01-10T05:46:26;-3.90;93.20
79439;DHT22;68889;48.232;10.110;2024-01-10T05:48:53;-3.90;92.60
79439;DHT22;68889;48.232;10.110;2024-01-10T05:51:19;-3.80;92.40
79439;DHT22;68889;48.232;10.110;2024-01-10T05:53:44;-3.80;92.50
79439;DHT22;68889;48.232;10.110;2024-01-10T05:56:10;-3.80;92.50
79439;DHT22;68889;48.232;10.110;2024-01-10T05:58:37;-3.80;93.00
79439;DHT22;68889;48.232;10.110;2024-01-10T06:01:03;-3.90;92.10
79439;DHT22;68889;48.232;10.110;2024-01-10T06:03:30;-3.80;93.50
79439;DHT22;68889;48.232;10.110;2024-01-10T06:05:55;-3.80;93.40
79439;DHT22;68889;48.232;10.110;2024-01-10T06:08:21;-3.70;92.30
79439;DHT22;68889;48.232;10.110;2024-01-10T06:10:51;-3.70;92.00
79439;DHT22;68889;48.232;10.110;2024-01-10T06:13:18;-3.70;92.50
79439;DHT22;68889;48.232;10.110;2024-01-10T06:15:44;-3.70;92.90
79439;DHT22;68889;48.232;10.110;2024-01-10T06:18:10;-3.70;91.90
79439;DHT22;68889;48.232;10.110;2024-01-10T06:20:35;-3.70;92.00
79439;DHT22;68889;48.232;10.110;2024-01-10T06:23:04;-3.80;92.10
79439;DHT22;68889;48.232;10.110;2024-01-10T06:25:31;-3.80;92.40
79439;DHT22;68889;48.232;10.110;2024-01-10T06:27:57;-3.80;93.00
79439;DHT22;68889;48.232;10.110;2024-01-10T06:30:23;-3.80;93.20
79439;DHT22;68889;48.232;10.110;2024-01-10T06:32:48;-3.80;93.20
79439;DHT22;68889;48.232;10.110;2024-01-10T06:35:14;-3.80;93.40
79439;DHT22;68889;48.232;10.110;2024-01-10T06:37:40;-3.80;93.70
79439;DHT22;68889;48.232;10.110;2024-01-10T06:40:06;-3.80;93.70
79439;DHT22;68889;48.232;10.110;2024-01-10T06:42:32;-3.90;93.50
79439;DHT22;68889;48.232;10.110;2024-01-10T06:44:58;-4.00;93.70
79439;DHT22;68889;48.232;10.110;2024-01-10T06:47:24;-4.00;93.80
79439;DHT22;68889;48.232;10.110;2024-01-10T06:49:50;-4.00;94.40
79439;DHT22;68889;48.232;10.110;2024-01-10T06:52:15;-4.00;94.30
79439;DHT22;68889;48.232;10.110;2024-01-10T06:54:42;-4.00;94.40
79439;DHT22;68889;48.232;10.110;2024-01-10T06:57:07;-4.00;94.50
79439;DHT22;68889;48.232;10.110;2024-01-10T06:59:33;-4.00;94.50
79439;DHT22;68889;48.232;10.110;2024-01-10T07:01:59;-3.90;94.40
79439;DHT22;68889;48.232;10.110;2024-01-10T07:04:26;-3.90;94.30
79439;DHT22;68889;48.232;10.110;2024-01-10T07:06:53;-3.80;94.20
79439;DHT22;68889;48.232;10.110;2024-01-10T07:09:19;-3.80;94.20
79439;DHT22;68889;48.232;10.110;2024-01-10T07:11:46;-3.80;93.80
79439;DHT22;68889;48.232;10.110;2024-01-10T07:14:13;-3.80;93.50
79439;DHT22;68889;48.232;10.110;2024-01-10T07:16:39;-3.80;93.70
79439;DHT22;68889;48.232;10.110;2024-01-10T07:19:11;-3.80;93.90
79439;DHT22;68889;48.232;10.110;2024-01-10T07:21:41;-3.80;93.40
79439;DHT22;68889;48.232;10.110;2024-01-10T07:24:07;-3.70;93.40
79439;DHT22;68889;48.232;10.110;2024-01-10T07:26:35;-3.70;93.50
79439;DHT22;68889;48.232;10.110;2024-01-10T07:29:01;-3.70;93.30
79439;DHT22;68889;48.232;10.110;2024-01-10T07:31:30;-3.70;92.60
79439;DHT22;68889;48.232;10.110;2024-01-10T07:33:56;-3.70;93.00
79439;DHT22;68889;48.232;10.110;2024-01-10T07:36:24;-3.70;93.00
79439;DHT22;68889;48.232;10.110;2024-01-10T07:38:52;-3.60;92.70
79439;DHT22;68889;48.232;10.110;2024-01-10T07:41:18;-3.60;92.60
79439;DHT22;68889;48.232;10.110;2024-01-10T07:43:44;-3.60;92.70
79439;DHT22;68889;48.232;10.110;2024-01-10T07:46:10;-3.50;92.80
79439;DHT22;68889;48.232;10.110;2024-01-10T07:48:36;-3.40;93.10
79439;DHT22;68889;48.232;10.110;2024-01-10T07:51:03;-3.30;92.10
79439;DHT22;68889;48.232;10.110;2024-01-10T07:53:30;-3.30;91.80
79439;DHT22;68889;48.232;10.110;2024-01-10T07:55:56;-3.20;92.10
79439;DHT22;68889;48.232;10.110;2024-01-10T07:58:22;-3.20;92.20
79439;DHT22;68889;48.232;10.110;2024-01-10T08:00:48;-3.20;91.40
79439;DHT22;68889;48.232;10.110;2024-01-10T08:03:13;-3.20;91.80
79439;DHT22;68889;48.232;10.110;2024-01-10T08:05:39;-3.10;91.80
79439;DHT22;68889;48.232;10.110;2024-01-10T08:08:05;-3.00;91.50
79439;DHT22;68889;48.232;10.110;2024-01-10T08:10:32;-3.00;91.20
79439;DHT22;68889;48.232;10.110;2024-01-10T08:12:58;-2.90;91.30
79439;DHT22;68889;48.232;10.110;2024-01-10T08:15:25;-2.90;90.90
79439;DHT22;68889;48.232;10.110;2024-01-10T08:17:51;-2.90;91.00
79439;DHT22;68889;48.232;10.110;2024-01-10T08:20:16;-2.90;90.70
79439;DHT22;68889;48.232;10.110;2024-01-10T08:22:47;-2.80;91.30
79439;DHT22;68889;48.232;10.110;2024-01-10T08:25:13;-2.70;90.40
79439;DHT22;68889;48.232;10.110;2024-01-10T08:27:41;-2.60;90.40
79439;DHT22;68889;48.232;10.110;2024-01-10T08:30:07;-2.60;90.40
79439;DHT22;68889;48.232;10.110;2024-01-10T08:32:35;-2.50;90.40
79439;DHT22;68889;48.232;10.110;2024-01-10T08:35:05;-2.40;90.60
79439;DHT22;68889;48.232;10.110;2024-01-10T08:37:34;-2.30;89.70
79439;DHT22;68889;48.232;10.110;2024-01-10T08:40:00;-2.10;89.80
79439;DHT22;68889;48.232;10.110;2024-01-10T08:42:31;-2.00;88.90
79439;DHT22;68889;48.232;10.110;2024-01-10T08:44:58;-2.10;88.30
79439;DHT22;68889;48.232;10.110;2024-01-10T08:47:24;-2.10;88.60
79439;DHT22;68889;48.232;10.110;2024-01-10T08:49:50;-2.10;89.30
79439;DHT22;68889;48.232;10.110;2024-01-10T08:52:16;-2.00;89.70
79439;DHT22;68889;48.232;10.110;2024-01-10T08:54:42;-2.00;88.90
79439;DHT22;68889;48.232;10.110;2024-01-10T08:57:08;-1.90;89.60
79439;DHT22;68889;48.232;10.110;2024-01-10T08:59:34;-1.80;89.40
79439;DHT22;68889;48.232;10.110;2024-01-10T09:02:01;-1.80;88.60
79439;DHT22;68889;48.232;10.110;2024-01-10T09:04:27;-1.70;88.40
79439;DHT22;68889;48.232;10.110;2024-01-10T09:06:53;-1.60;88.50
79439;DHT22;68889;48.232;10.110;2024-01-10T09:09:19;-1.60;88.00
79439;DHT22;68889;48.232;10.110;2024-01-10T09:11:48;-1.50;89.00
79439;DHT22;68889;48.232;10.110;2024-01-10T09:14:14;-1.40;88.10
79439;DHT22;68889;48.232;10.110;2024-01-10T09:16:40;-1.40;87.80
79439;DHT22;68889;48.232;10.110;2024-01-10T09:19:06;-1.30;87.90
79439;DHT22;68889;48.232;10.110;2024-01-10T09:21:32;-1.20;87.20
79439;DHT22;68889;48.232;10.110;2024-01-10T09:23:57;-1.10;87.50
79439;DHT22;68889;48.232;10.110;2024-01-10T09:26:23;-0.90;87.70
79439;DHT22;68889;48.232;10.110;2024-01-10T09:28:49;-0.70;86.80
79439;DHT22;68889;48.232;10.110;2024-01-10T09:31:15;-0.60;86.70
79439;DHT22;68889;48.232;10.110;2024-01-10T09:33:40;-0.50;85.70
79439;DHT22;68889;48.232;10.110;2024-01-10T09:36:07;-0.60;85.80
79439;DHT22;68889;48.232;10.110;2024-01-10T09:38:37;-0.60;85.60
79439;DHT22;68889;48.232;10.110;2024-01-10T09:41:04;-0.50;85.90
79439;DHT22;68889;48.232;10.110;2024-01-10T09:43:30;-0.40;85.30
79439;DHT22;68889;48.232;10.110;2024-01-10T09:45:58;-0.30;85.70
79439;DHT22;68889;48.232;10.110;2024-01-10T09:48:25;-0.20;84.80
79439;DHT22;68889;48.232;10.110;2024-01-10T09:50:53;-0.30;85.40
79439;DHT22;68889;48.232;10.110;2024-01-10T09:53:23;-0.20;85.40
79439;DHT22;68889;48.232;10.110;2024-01-10T09:56:07;-0.10;84.80
79439;DHT22;68889;48.232;10.110;2024-01-10T09:58:35;0.00;84.50
79439;DHT22;68889;48.232;10.110;2024-01-10T10:01:05;0.20;84.30
79439;DHT22;68889;48.232;10.110;2024-01-10T10:03:36;0.30;84.30
79439;DHT22;68889;48.232;10.110;2024-01-10T10:06:05;0.40;83.90
79439;DHT22;68889;48.232;10.110;2024-01-10T10:08:31;0.50;82.60
79439;DHT22;68889;48.232;10.110;2024-01-10T10:10:57;0.50;83.30
79439;DHT22;68889;48.232;10.110;2024-01-10T10:13:25;0.80;83.00
79439;DHT22;68889;48.232;10.110;2024-01-10T10:16:01;1.00;82.20
79439;DHT22;68889;48.232;10.110;2024-01-10T10:18:28;1.10;82.00
79439;DHT22;68889;48.232;10.110;2024-01-10T10:21:10;1.20;82.30
79439;DHT22;68889;48.232;10.110;2024-01-10T10:23:38;1.30;82.30
79439;DHT22;68889;48.232;10.110;2024-01-10T10:26:12;1.30;81.50
79439;DHT22;68889;48.232;10.110;2024-01-10T10:28:48;1.20;81.80
79439;DHT22;68889;48.232;10.110;2024-01-10T10:31:18;1.30;81.50
79439;DHT22;68889;48.232;10.110;2024-01-10T10:34:01;1.30;80.10
79439;DHT22;68889;48.232;10.110;2024-01-10T10:36:33;1.20;81.10
79439;DHT22;68889;48.232;10.110;2024-01-10T10:39:00;1.20;81.60
79439;DHT22;68889;48.232;10.110;2024-01-10T10:41:31;1.10;81.60
79439;DHT22;68889;48.232;10.110;2024-01-10T10:43:58;1.00;81.70
79439;DHT22;68889;48.232;10.110;2024-01-10T10:46:27;1.00;81.60
79439;DHT22;68889;48.232;10.110;2024-01-10T10:48:54;1.00;81.90
79439;DHT22;68889;48.232;10.110;2024-01-10T10:51:32;1.10;82.30
79439;DHT22;68889;48.232;10.110;2024-01-10T10:53:59;1.10;81.70
79439;DHT22;68889;48.232;10.110;2024-01-10T10:56:29;1.20;81.30
79439;DHT22;68889;48.232;10.110;2024-01-10T10:59:00;1.30;80.70
79439;DHT22;68889;48.232;10.110;2024-01-10T11:02:00;1.50;81.30
79439;DHT22;68889;48.232;10.110;2024-01-10T11:05:15;1.70;80.80
79439;DHT22;68889;48.232;10.110;2024-01-10T11:08:26;1.90;80.00
79439;DHT22;68889;48.232;10.110;2024-01-10T11:11:07;2.00;79.50
79439;DHT22;68889;48.232;10.110;2024-01-10T11:17:49;2.20;80.10
79439;DHT22;68889;48.232;10.110;2024-01-10T11:21:09;2.30;78.90
79439;DHT22;68889;48.232;10.110;2024-01-10T11:24:00;2.30;78.70
79439;DHT22;68889;48.232;10.110;2024-01-10T11:26:47;2.30;80.00
79439;DHT22;68889;48.232;10.110;2024-01-10T11:29:19;2.30;80.10
79439;DHT22;68889;48.232;10.110;2024-01-10T11:32:16;2.40;80.30
79439;DHT22;68889;48.232;10.110;2024-01-10T11:35:30;2.60;79.70
79439;DHT22;68889;48.232;10.110;2024-01-10T11:38:16;2.40;79.00
79439;DHT22;68889;48.232;10.110;2024-01-10T11:41:42;2.60;79.40
79439;DHT22;68889;48.232;10.110;2024-01-10T11:45:07;2.70;79.80
79439;DHT22;68889;48.232;10.110;2024-01-10T11:51:57;3.30;80.50
79439;DHT22;68889;48.232;10.110;2024-01-10T11:54:48;3.30;78.50
79439;DHT22;68889;48.232;10.110;2024-01-10T11:57:25;2.90;79.10
79439;DHT22;68889;48.232;10.110;2024-01-10T11:59:55;2.50;79.90
79439;DHT22;68889;48.232;10.110;2024-01-10T12:02:24;2.30;80.60
79439;DHT22;68889;48.232;10.110;2024-01-10T12:04:52;2.20;80.30
79439;DHT22;68889;48.232;10.110;2024-01-10T12:07:18;2.10;81.30
79439;DHT22;68889;48.232;10.110;2024-01-10T12:09:45;1.90;81.20
79439;DHT22;68889;48.232;10.110;2024-01-10T12:12:14;1.70;82.20
79439;DHT22;68889;48.232;10.110;2024-01-10T12:14:40;1.60;82.10
79439;DHT22;68889;48.232;10.110;2024-01-10T12:17:07;1.60;81.90
79439;DHT22;68889;48.232;10.110;2024-01-10T12:19:34;1.50;82.50
79439;DHT22;68889;48.232;10.110;2024-01-10T12:22:01;1.50;82.50
79439;DHT22;68889;48.232;10.110;2024-01-10T12:24:28;1.40;83.00
79439;DHT22;68889;48.232;10.110;2024-01-10T12:26:59;1.40;83.00
79439;DHT22;68889;48.232;10.110;2024-01-10T12:29:25;1.40;83.20
79439;DHT22;68889;48.232;10.110;2024-01-10T12:31:52;1.40;83.20
79439;DHT22;68889;48.232;10.110;2024-01-10T12:34:19;1.50;83.40
79439;DHT22;68889;48.232;10.110;2024-01-10T12:36:47;1.60;83.30
79439;DHT22;68889;48.232;10.110;2024-01-10T12:39:13;1.70;83.20
79439;DHT22;68889;48.232;10.110;2024-01-10T12:41:40;1.80;82.50
79439;DHT22;68889;48.232;10.110;2024-01-10T12:44:06;1.80;82.80
79439;DHT22;68889;48.232;10.110;2024-01-10T12:46:32;1.90;83.40
79439;DHT22;68889;48.232;10.110;2024-01-10T12:49:00;2.00;82.70
79439;DHT22;68889;48.232;10.110;2024-01-10T12:51:27;2.10;82.50
79439;DHT22;68889;48.232;10.110;2024-01-10T12:53:53;2.10;82.90
79439;DHT22;68889;48.232;10.110;2024-01-10T12:56:19;2.00;82.90
79439;DHT22;68889;48.232;10.110;2024-01-10T12:58:45;1.90;83.10
79439;DHT22;68889;48.232;10.110;2024-01-10T13:01:11;1.90;83.40
79439;DHT22;68889;48.232;10.110;2024-01-10T13:03:39;1.90;83.60
79439;DHT22;68889;48.232;10.110;2024-01-10T13:06:06;1.80;83.60
79439;DHT22;68889;48.232;10.110;2024-01-10T13:08:34;1.80;83.80
79439;DHT22;68889;48.232;10.110;2024-01-10T13:11:00;1.70;83.90
79439;DHT22;68889;48.232;10.110;2024-01-10T13:13:27;1.50;85.40
79439;DHT22;68889;48.232;10.110;2024-01-10T13:15:53;1.30;85.80
79439;DHT22;68889;48.232;10.110;2024-01-10T13:18:20;1.30;86.10
79439;DHT22;68889;48.232;10.110;2024-01-10T13:20:46;1.40;86.10
79439;DHT22;68889;48.232;10.110;2024-01-10T13:23:13;1.60;86.00
79439;DHT22;68889;48.232;10.110;2024-01-10T13:25:41;1.70;85.80
79439;DHT22;68889;48.232;10.110;2024-01-10T13:28:07;1.70;86.00
79439;DHT22;68889;48.232;10.110;2024-01-10T13:30:34;1.90;86.70
79439;DHT22;68889;48.232;10.110;2024-01-10T13:33:00;2.00;86.40
79439;DHT22;68889;48.232;10.110;2024-01-10T13:35:26;2.00;85.80
79439;DHT22;68889;48.232;10.110;2024-01-10T13:37:52;1.90;85.90
79439;DHT22;68889;48.232;10.110;2024-01-10T13:40:18;1.80;86.40
79439;DHT22;68889;48.232;10.110;2024-01-10T13:42:49;1.80;86.30
79439;DHT22;68889;48.232;10.110;2024-01-10T13:45:16;1.60;86.20
79439;DHT22;68889;48.232;10.110;2024-01-10T13:47:42;1.30;87.30
79439;DHT22;68889;48.232;10.110;2024-01-10T13:50:09;1.30;87.50
79439;DHT22;68889;48.232;10.110;2024-01-10T13:52:36;1.40;87.80
79439;DHT22;68889;48.232;10.110;2024-01-10T13:55:02;1.40;87.60
79439;DHT22;68889;48.232;10.110;2024-01-10T13:57:32;1.30;87.60
79439;DHT22;68889;48.232;10.110;2024-01-10T13:59:59;1.10;88.30
79439;DHT22;68889;48.232;10.110;2024-01-10T14:02:25;1.00;88.60
79439;DHT22;68889;48.232;10.110;2024-01-10T14:04:52;1.10;88.20
79439;DHT22;68889;48.232;10.110;2024-01-10T14:07:23;1.10;88.10
79439;DHT22;68889;48.232;10.110;2024-01-10T14:09:50;1.00;88.60
79439;DHT22;68889;48.232;10.110;2024-01-10T14:12:17;1.00;88.80
79439;DHT22;68889;48.232;10.110;2024-01-10T14:14:43;1.00;88.70
79439;DHT22;68889;48.232;10.110;2024-01-10T14:17:09;1.00;88.40
79439;DHT22;68889;48.232;10.110;2024-01-10T14:19:35;1.10;88.70
79439;DHT22;68889;48.232;10.110;2024-01-10T14:22:02;1.10;88.30
79439;DHT22;68889;48.232;10.110;2024-01-10T14:24:28;1.10;88.90
79439;DHT22;68889;48.232;10.110;2024-01-10T14:26:54;1.10;88.80
79439;DHT22;68889;48.232;10.110;2024-01-10T14:29:20;1.10;89.30
79439;DHT22;68889;48.232;10.110;2024-01-10T14:31:49;1.00;89.10
79439;DHT22;68889;48.232;10.110;2024-01-10T14:34:15;1.00;89.60
79439;DHT22;68889;48.232;10.110;2024-01-10T14:36:41;0.90;89.80
79439;DHT22;68889;48.232;10.110;2024-01-10T14:39:07;0.80;89.50
79439;DHT22;68889;48.232;10.110;2024-01-10T14:41:33;0.70;90.40
79439;DHT22;68889;48.232;10.110;2024-01-10T14:44:02;0.60;90.40
79439;DHT22;68889;48.232;10.110;2024-01-10T14:46:29;0.60;91.10
79439;DHT22;68889;48.232;10.110;2024-01-10T14:48:55;0.50;91.10
79439;DHT22;68889;48.232;10.110;2024-01-10T14:51:21;0.50;91.00
79439;DHT22;68889;48.232;10.110;2024-01-10T14:53:46;0.50;91.20
79439;DHT22;68889;48.232;10.110;2024-01-10T14:56:17;0.60;90.80
79439;DHT22;68889;48.232;10.110;2024-01-10T14:58:43;0.60;91.00
79439;DHT22;68889;48.232;10.110;2024-01-10T15:01:09;0.50;90.70
79439;DHT22;68889;48.232;10.110;2024-01-10T15:03:36;0.40;91.30
79439;DHT22;68889;48.232;10.110;2024-01-10T15:06:05;0.40;91.60
79439;DHT22;68889;48.232;10.110;2024-01-10T15:08:31;0.30;91.70
79439;DHT22;68889;48.232;10.110;2024-01-10T15:11:00;0.30;91.50
79439;DHT22;68889;48.232;10.110;2024-01-10T15:15:53;0.10;92.40
79439;DHT22;68889;48.232;10.110;2024-01-10T15:18:26;0.00;92.50
79439;DHT22;68889;48.232;10.110;2024-01-10T15:20:54;-0.10;93.00
79439;DHT22;68889;48.232;10.110;2024-01-10T15:23:21;-0.10;93.10
79439;DHT22;68889;48.232;10.110;2024-01-10T15:28:12;-0.30;93.30
79439;DHT22;68889;48.232;10.110;2024-01-10T15:35:53;-0.40;93.30
79439;DHT22;68889;48.232;10.110;2024-01-10T15:38:32;-0.40;93.70
79439;DHT22;68889;48.232;10.110;2024-01-10T15:41:19;-0.40;93.90
79439;DHT22;68889;48.232;10.110;2024-01-10T15:43:44;-0.30;93.50
79439;DHT22;68889;48.232;10.110;2024-01-10T15:46:18;-0.40;93.90